createdAt,value
2022-10-11T00:00:17.740Z,1019.992253
2022-10-11T00:05:17.652Z,1020.051503
2022-10-11T00:10:17.770Z,1020.055493
2022-10-11T00:15:17.644Z,1020.087198
2022-10-11T00:20:17.864Z,1020.103819
2022-10-11T00:25:17.629Z,1020.085861
2022-10-11T00:30:17.969Z,1020.170759
2022-10-11T00:35:17.596Z,1020.254127
2022-10-11T00:40:17.726Z,1020.305596
2022-10-11T00:45:17.858Z,1020.340467
2022-10-11T00:50:17.973Z,1020.433906
2022-10-11T00:55:17.655Z,1020.413227
2022-10-11T01:00:17.625Z,1020.479688
2022-10-11T01:05:29.337Z,1020.526368
2022-10-11T01:10:17.709Z,1020.582214
2022-10-11T01:15:17.811Z,1020.647334
2022-10-11T01:20:17.569Z,1020.702567
2022-10-11T01:25:17.844Z,1020.699518
2022-10-11T01:30:17.556Z,1020.781017
2022-10-11T01:35:17.516Z,1020.800672
2022-10-11T01:40:17.545Z,1020.872090
2022-10-11T01:45:17.509Z,1020.782037
2022-10-11T01:50:17.615Z,1020.775764
2022-10-11T01:55:17.686Z,1020.856658
2022-10-11T02:00:17.637Z,1020.925357
2022-10-11T02:05:18.123Z,1021.000582
2022-10-11T02:10:17.576Z,1021.105543
2022-10-11T02:15:17.767Z,1021.183484
2022-10-11T02:20:17.950Z,1021.248970
2022-10-11T02:25:17.597Z,1021.285317
2022-10-11T02:30:17.551Z,1021.371818
2022-10-11T02:35:17.786Z,1021.451632
2022-10-11T02:40:17.741Z,1021.536027
2022-10-11T02:45:17.496Z,1021.629931
2022-10-11T02:50:17.499Z,1021.673097
2022-10-11T02:55:17.870Z,1021.720408
2022-10-11T03:00:18.057Z,1021.764691
2022-10-11T03:05:17.834Z,1021.847969
2022-10-11T03:10:17.932Z,1021.948248
2022-10-11T03:15:17.570Z,1022.017604
2022-10-11T03:20:17.527Z,1022.112989
2022-10-11T03:25:17.499Z,1022.252447
2022-10-11T03:30:18.504Z,1022.346169
2022-10-11T03:35:17.589Z,1022.396811
2022-10-11T03:40:17.477Z,1022.476266
2022-10-11T03:45:17.696Z,1022.537931
2022-10-11T03:50:17.529Z,1022.626327
2022-10-11T03:55:17.496Z,1022.662031
2022-10-11T04:00:17.510Z,1022.740253
2022-10-11T04:05:17.494Z,1022.816755
2022-10-11T04:10:17.770Z,1022.899644
2022-10-11T04:15:17.551Z,1022.977357
2022-10-11T04:20:17.544Z,1023.017173
2022-10-11T04:30:17.688Z,1023.147612
2022-10-11T04:35:17.530Z,1023.187618
2022-10-11T04:40:17.684Z,1023.241307
2022-10-11T04:45:17.512Z,1023.328262
2022-10-11T04:50:17.542Z,1023.414161
2022-10-11T04:55:18.174Z,1023.519360
2022-10-11T05:00:17.529Z,1023.602419
2022-10-11T05:05:17.481Z,1023.754399
2022-10-11T05:10:17.440Z,1023.795307
2022-10-11T05:15:17.526Z,1023.891792
2022-10-11T05:20:17.461Z,1023.976418
2022-10-11T05:25:17.545Z,1024.045397
2022-10-11T05:30:17.511Z,1024.114951
2022-10-11T05:35:17.528Z,1024.150933
2022-10-11T05:40:17.696Z,1024.201489
2022-10-11T05:45:18.253Z,1024.267477
2022-10-11T05:50:23.310Z,1024.311218
2022-10-11T05:55:17.466Z,1024.435403
2022-10-11T06:00:17.428Z,1024.483908
2022-10-11T06:05:17.542Z,1024.556433
2022-10-11T06:10:17.537Z,1024.581692
2022-10-11T06:15:17.502Z,1024.637781
2022-10-11T06:20:17.893Z,1024.716892
2022-10-11T06:25:17.495Z,1024.707216
2022-10-11T06:30:17.606Z,1024.758124
2022-10-11T06:35:17.516Z,1024.813725
2022-10-11T06:40:17.528Z,1024.875655
2022-10-11T06:45:17.526Z,1024.903619
2022-10-11T06:50:29.909Z,1024.928790
2022-10-11T06:55:17.440Z,1024.945577
2022-10-11T07:00:17.440Z,1024.961338
2022-10-11T07:05:17.676Z,1024.987091
2022-10-11T07:10:17.430Z,1024.997714
2022-10-11T07:15:17.569Z,1024.990416
2022-10-11T07:20:17.723Z,1025.002928
2022-10-11T07:25:17.924Z,1024.959133
2022-10-11T07:30:18.263Z,1025.002912
2022-10-11T07:35:17.461Z,1025.002802
2022-10-11T07:40:17.462Z,1025.051251
2022-10-11T07:45:17.798Z,1025.104631
2022-10-11T07:50:17.710Z,1025.153283
2022-10-11T07:55:17.438Z,1025.182547
2022-10-11T08:00:17.473Z,1025.221434
2022-10-11T08:05:17.616Z,1025.229663
2022-10-11T08:10:17.691Z,1025.243587
2022-10-11T08:15:17.475Z,1025.318284
2022-10-11T08:20:17.539Z,1025.302860
2022-10-11T08:25:17.509Z,1025.325481
2022-10-11T08:30:17.452Z,1025.330076
2022-10-11T08:35:17.405Z,1025.327546
2022-10-11T08:40:17.433Z,1025.311568
2022-10-11T08:45:17.468Z,1025.313313
2022-10-11T08:50:17.463Z,1025.322535
2022-10-11T08:55:17.460Z,1025.318926
2022-10-11T09:00:17.727Z,1025.309489
2022-10-11T09:05:17.518Z,1025.319479
2022-10-11T09:10:18.114Z,1025.340402
2022-10-11T09:15:17.965Z,1025.367849
2022-10-11T09:20:17.521Z,1025.366325
2022-10-11T09:25:18.024Z,1025.366751
2022-10-11T09:30:17.849Z,1025.361586
2022-10-11T09:35:17.619Z,1025.345570
2022-10-11T09:40:17.401Z,1025.314359
2022-10-11T09:45:17.484Z,1025.319529
2022-10-11T09:50:17.486Z,1025.337346
2022-10-11T09:55:19.697Z,1025.333049
2022-10-11T10:00:17.605Z,1025.398930
2022-10-11T10:05:17.464Z,1025.368588
2022-10-11T10:10:17.565Z,1025.336020
2022-10-11T10:15:17.440Z,1025.359926
2022-10-11T10:20:17.492Z,1025.326273
2022-10-11T10:25:17.370Z,1025.378833
2022-10-11T10:30:17.427Z,1025.350052
2022-10-11T10:35:17.334Z,1025.306031
2022-10-11T10:40:17.359Z,1025.311550
2022-10-11T10:45:21.489Z,1025.265961
2022-10-11T10:50:17.491Z,1025.252433
2022-10-11T10:55:17.373Z,1025.215182
2022-10-11T11:00:17.724Z,1025.202156
2022-10-11T11:05:17.814Z,1025.253136
2022-10-11T11:10:17.954Z,1025.244550
2022-10-11T11:15:19.649Z,1025.229869
2022-10-11T11:20:17.421Z,1025.227704
2022-10-11T11:25:17.401Z,1025.227862
2022-10-11T11:30:17.528Z,1025.225174
2022-10-11T11:35:17.500Z,1025.202370
2022-10-11T11:40:17.714Z,1025.184490
2022-10-11T11:45:17.440Z,1025.180541
2022-10-11T11:50:17.435Z,1025.104755
2022-10-11T11:55:17.717Z,1025.094576
2022-10-11T12:00:17.501Z,1025.064030
2022-10-11T12:05:17.748Z,1025.081142
2022-10-11T12:10:17.499Z,1025.055867
2022-10-11T12:15:17.539Z,1024.958319
2022-10-11T12:20:17.448Z,1024.863783
2022-10-11T12:25:18.676Z,1024.838543
2022-10-11T12:30:17.659Z,1024.840319
2022-10-11T12:35:17.713Z,1024.807169
2022-10-11T12:40:17.578Z,1024.785132
2022-10-11T12:45:17.827Z,1024.737174
2022-10-11T12:50:17.911Z,1024.746254
2022-10-11T12:55:17.462Z,1024.762515
2022-10-11T13:00:17.400Z,1024.799843
2022-10-11T13:05:17.709Z,1024.811558
2022-10-11T13:10:17.398Z,1024.768514
2022-10-11T13:15:17.536Z,1024.743333
2022-10-11T13:20:17.643Z,1024.788033
2022-10-11T13:25:17.312Z,1024.809054
2022-10-11T13:30:17.371Z,1024.932758
2022-10-11T13:35:19.767Z,1024.927296
2022-10-11T13:40:17.638Z,1024.946027
2022-10-11T13:45:17.600Z,1024.950063
2022-10-11T13:50:17.418Z,1024.923295
2022-10-11T13:55:17.458Z,1024.906183
2022-10-11T14:00:17.326Z,1024.875788
2022-10-11T14:05:17.376Z,1024.824441
2022-10-11T14:10:17.642Z,1024.772761
2022-10-11T14:15:17.560Z,1024.776976
2022-10-11T14:20:17.415Z,1024.763941
2022-10-11T14:25:17.460Z,1024.737746
2022-10-11T14:30:25.430Z,1024.698402
2022-10-11T14:35:17.522Z,1024.732962
2022-10-11T14:40:17.443Z,1024.734150
2022-10-11T14:45:17.659Z,1024.722339
2022-10-11T14:50:17.750Z,1024.676210
2022-10-11T14:55:17.555Z,1024.665030
2022-10-11T15:00:17.621Z,1024.690384
2022-10-11T15:05:17.316Z,1024.672243
2022-10-11T15:10:17.364Z,1024.713911
2022-10-11T15:15:17.271Z,1024.721245
2022-10-11T15:20:17.394Z,1024.691738
2022-10-11T15:25:17.349Z,1024.710612
2022-10-11T15:30:17.305Z,1024.672692
2022-10-11T15:35:17.370Z,1024.727834
2022-10-11T15:40:17.710Z,1024.704834
2022-10-11T15:45:17.451Z,1024.747335
2022-10-11T15:50:17.350Z,1024.833436
2022-10-11T15:55:17.282Z,1024.876689
2022-10-11T16:00:21.981Z,1024.956884
2022-10-11T16:05:17.262Z,1024.988194
2022-10-11T16:10:17.332Z,1025.051241
2022-10-11T16:15:17.295Z,1025.109729
2022-10-11T16:20:17.369Z,1025.121883
2022-10-11T16:25:17.291Z,1025.205583
2022-10-11T16:30:17.417Z,1025.257695
2022-10-11T16:35:17.294Z,1025.329085
2022-10-11T16:40:17.387Z,1025.400440
2022-10-11T16:45:17.478Z,1025.509545
2022-10-11T16:50:17.268Z,1025.525255
2022-10-11T16:55:17.614Z,1025.583639
2022-10-11T17:00:17.703Z,1025.555747
2022-10-11T17:05:17.719Z,1025.584976
2022-10-11T17:10:17.428Z,1025.662763
2022-10-11T17:15:17.657Z,1025.688941
2022-10-11T17:20:17.416Z,1025.716402
2022-10-11T17:25:17.257Z,1025.785676
2022-10-11T17:30:17.738Z,1025.798804
2022-10-11T17:35:17.294Z,1025.830979
2022-10-11T17:40:17.590Z,1025.835497
2022-10-11T17:45:17.348Z,1025.858097
2022-10-11T17:50:17.419Z,1025.886811
2022-10-11T17:55:17.262Z,1025.884071
2022-10-11T18:00:17.326Z,1025.869386
2022-10-11T18:05:17.440Z,1025.835971
2022-10-11T18:10:17.416Z,1025.837982
2022-10-11T18:15:17.391Z,1025.863194
2022-10-11T18:20:17.417Z,1025.896737
2022-10-11T18:25:17.469Z,1025.877801
2022-10-11T18:30:17.574Z,1025.894837
2022-10-11T18:35:17.676Z,1025.869195
2022-10-11T18:40:17.823Z,1025.867519
2022-10-11T18:45:17.522Z,1025.803632
2022-10-11T18:50:21.265Z,1025.870993
2022-10-11T18:55:17.365Z,1025.869116
2022-10-11T19:00:39.719Z,1025.852464
2022-10-11T19:05:17.266Z,1025.827193
2022-10-11T19:10:17.487Z,1025.814931
2022-10-11T19:15:17.424Z,1025.801570
2022-10-11T19:20:17.222Z,1025.807846
2022-10-11T19:25:17.657Z,1025.799730
2022-10-11T19:30:17.734Z,1025.808913
2022-10-11T19:35:19.954Z,1025.762928
2022-10-11T19:40:17.602Z,1025.798123
2022-10-11T19:45:17.441Z,1025.818011
2022-10-11T19:50:17.436Z,1025.829571
2022-10-11T19:55:17.527Z,1025.855618
2022-10-11T20:00:17.272Z,1025.891798
2022-10-11T20:05:17.265Z,1025.889297
2022-10-11T20:10:17.188Z,1025.924124
2022-10-11T20:15:17.166Z,1025.972321
2022-10-11T20:20:17.291Z,1025.948543
2022-10-11T20:25:17.324Z,1025.921885
2022-10-11T20:30:19.686Z,1025.950169
2022-10-11T20:35:17.224Z,1025.948847
2022-10-11T20:40:17.534Z,1026.004578
2022-10-11T20:45:17.223Z,1026.071811
2022-10-11T20:50:22.109Z,1026.098056
2022-10-11T20:55:17.199Z,1026.129934
2022-10-11T21:00:17.589Z,1026.082760
2022-10-11T21:05:17.486Z,1026.084929
2022-10-11T21:10:17.531Z,1026.134316
2022-10-11T21:15:17.335Z,1026.175766
2022-10-11T21:20:17.609Z,1026.252167
2022-10-11T21:25:17.194Z,1026.196551
2022-10-11T21:30:17.512Z,1026.171155
2022-10-11T21:35:17.488Z,1026.189886
2022-10-11T21:40:17.320Z,1026.184364
2022-10-11T21:45:17.686Z,1026.186035
2022-10-11T21:50:17.622Z,1026.172448
2022-10-11T21:55:17.210Z,1026.173888
2022-10-11T22:00:17.269Z,1026.180780
2022-10-11T22:05:17.200Z,1026.216470
2022-10-11T22:10:17.216Z,1026.282732
2022-10-11T22:15:17.173Z,1026.244832
2022-10-11T22:20:17.138Z,1026.234369
2022-10-11T22:25:17.156Z,1026.203472
2022-10-11T22:30:17.172Z,1026.188756
2022-10-11T22:35:17.275Z,1026.168560
2022-10-11T22:40:17.496Z,1026.208525
2022-10-11T22:45:17.581Z,1026.215456
2022-10-11T22:50:17.184Z,1026.259813
2022-10-11T22:55:20.158Z,1026.274043
2022-10-11T23:00:17.416Z,1026.283078
2022-10-11T23:05:17.114Z,1026.251981
2022-10-11T23:10:17.365Z,1026.266211
2022-10-11T23:15:17.109Z,1026.297973
2022-10-11T23:20:17.174Z,1026.307951
2022-10-11T23:25:17.074Z,1026.272499
2022-10-11T23:30:17.248Z,1026.270709
2022-10-11T23:35:17.569Z,1026.302977
2022-10-11T23:40:17.562Z,1026.319741
2022-10-11T23:45:17.583Z,1026.320819
2022-10-11T23:50:17.295Z,1026.326936
2022-10-11T23:55:17.325Z,1026.325367
